createdAt,value
2018-02-27T00:00:40.471Z,7.68
2018-02-27T00:03:07.897Z,7.15
2018-02-27T00:05:35.360Z,7.50
2018-02-27T00:08:02.818Z,7.50
2018-02-27T00:10:30.290Z,7.80
2018-02-27T00:12:57.751Z,8.18
2018-02-27T00:15:25.288Z,8.13
2018-02-27T00:17:52.746Z,8.25
2018-02-27T00:20:20.223Z,7.82
2018-02-27T00:22:47.679Z,7.70
2018-02-27T00:25:15.122Z,8.02
2018-02-27T00:27:42.562Z,7.95
2018-02-27T00:30:10.051Z,7.80
2018-02-27T00:32:37.487Z,8.38
2018-02-27T00:35:04.957Z,8.95
2018-02-27T00:37:32.389Z,7.80
2018-02-27T00:39:59.911Z,8.65
2018-02-27T00:42:27.325Z,8.10
2018-02-27T00:44:54.746Z,7.87
2018-02-27T00:47:22.191Z,8.00
2018-02-27T00:49:49.631Z,7.82
2018-02-27T00:52:17.092Z,8.13
2018-02-27T00:54:44.514Z,9.00
2018-02-27T00:57:11.976Z,8.30
2018-02-27T00:59:39.560Z,9.30
2018-02-27T01:02:07.023Z,9.15
2018-02-27T01:04:34.468Z,8.63
2018-02-27T01:07:01.919Z,9.02
2018-02-27T01:09:29.401Z,8.73
2018-02-27T01:11:56.870Z,8.43
2018-02-27T01:14:24.334Z,8.68
2018-02-27T01:16:51.851Z,8.13
2018-02-27T01:19:19.303Z,8.25
2018-02-27T01:21:46.754Z,9.65
2018-02-27T01:24:14.194Z,8.38
2018-02-27T01:26:41.625Z,8.18
2018-02-27T01:29:09.262Z,8.60
2018-02-27T01:31:36.691Z,8.80
2018-02-27T01:34:04.156Z,8.20
2018-02-27T01:36:31.593Z,8.52
2018-02-27T01:38:59.050Z,9.93
2018-02-27T01:41:26.488Z,9.38
2018-02-27T01:43:53.952Z,9.20
2018-02-27T01:46:21.389Z,9.07
2018-02-27T01:48:48.807Z,9.52
2018-02-27T01:51:16.268Z,9.10
2018-02-27T01:53:43.689Z,9.60
2018-02-27T01:56:11.156Z,8.38
2018-02-27T01:58:38.582Z,9.10
2018-02-27T02:01:06.045Z,8.93
2018-02-27T02:03:33.484Z,9.65
2018-02-27T02:06:00.979Z,9.30
2018-02-27T02:08:28.400Z,8.25
2018-02-27T02:10:55.833Z,8.80
2018-02-27T02:13:23.286Z,9.32
2018-02-27T02:15:50.715Z,8.30
2018-02-27T02:18:18.172Z,9.02
2018-02-27T02:20:45.601Z,9.10
2018-02-27T02:23:13.142Z,8.90
2018-02-27T02:25:40.672Z,8.63
2018-02-27T02:28:08.133Z,8.95
2018-02-27T02:30:35.590Z,9.13
2018-02-27T02:33:03.087Z,7.75
2018-02-27T02:35:30.570Z,9.40
2018-02-27T02:38:00.157Z,8.25
2018-02-27T02:40:27.582Z,9.68
2018-02-27T02:42:55.056Z,8.88
2018-02-27T02:45:22.504Z,8.98
2018-02-27T02:47:49.950Z,8.32
2018-02-27T02:50:17.374Z,8.95
2018-02-27T02:52:44.848Z,9.27
2018-02-27T02:55:12.323Z,9.43
2018-02-27T02:57:39.796Z,8.35
2018-02-27T03:00:07.246Z,9.80
2018-02-27T03:02:34.677Z,9.07
2018-02-27T03:05:02.137Z,9.50
2018-02-27T03:07:29.567Z,9.60
2018-02-27T03:09:57.035Z,9.52
2018-02-27T03:12:28.375Z,8.13
2018-02-27T03:14:55.790Z,8.85
2018-02-27T03:17:23.255Z,8.85
2018-02-27T03:19:50.692Z,9.20
2018-02-27T03:22:18.198Z,9.40
2018-02-27T03:24:45.641Z,9.45
2018-02-27T03:27:13.108Z,9.60
2018-02-27T03:29:40.582Z,9.60
2018-02-27T03:32:08.039Z,9.82
2018-02-27T03:34:35.461Z,8.93
2018-02-27T03:37:03.311Z,9.60
2018-02-27T03:39:30.745Z,9.63
2018-02-27T03:41:58.211Z,8.90
2018-02-27T03:44:25.635Z,9.43
2018-02-27T03:46:53.101Z,9.13
2018-02-27T03:49:20.527Z,9.88
2018-02-27T03:51:48.067Z,9.50
2018-02-27T03:54:15.511Z,9.90
2018-02-27T03:56:42.961Z,10.15
2018-02-27T03:59:10.423Z,9.70
2018-02-27T04:01:37.900Z,10.00
2018-02-27T04:04:05.440Z,10.00
2018-02-27T04:06:32.881Z,9.20
2018-02-27T04:09:00.350Z,9.88
2018-02-27T04:11:27.783Z,10.43
2018-02-27T04:13:55.236Z,8.77
2018-02-27T04:16:22.693Z,10.23
2018-02-27T04:18:50.120Z,9.55
2018-02-27T04:21:17.564Z,9.00
2018-02-27T04:23:45.013Z,9.82
2018-02-27T04:26:12.462Z,9.15
2018-02-27T04:28:39.893Z,9.98
2018-02-27T04:31:07.344Z,10.05
2018-02-27T04:33:34.842Z,9.95
2018-02-27T04:36:02.266Z,10.35
2018-02-27T04:38:29.719Z,9.75
2018-02-27T04:40:57.185Z,9.95
2018-02-27T04:43:24.622Z,9.63
2018-02-27T04:45:52.158Z,9.90
2018-02-27T04:48:19.610Z,9.82
2018-02-27T04:50:47.113Z,10.10
2018-02-27T04:53:14.550Z,10.75
2018-02-27T04:55:42.015Z,9.43
2018-02-27T04:58:09.480Z,9.65
2018-02-27T05:00:36.950Z,10.93
2018-02-27T05:03:04.407Z,9.57
2018-02-27T05:05:31.853Z,9.32
2018-02-27T05:07:59.324Z,9.80
2018-02-27T05:10:26.875Z,9.57
2018-02-27T05:12:54.319Z,10.40
2018-02-27T05:15:21.781Z,9.02
2018-02-27T05:17:49.261Z,10.32
2018-02-27T05:20:17.623Z,10.70
2018-02-27T05:22:45.212Z,10.35
2018-02-27T05:25:12.741Z,10.95
2018-02-27T05:27:40.174Z,10.05
2018-02-27T05:30:07.678Z,10.40
2018-02-27T05:32:35.664Z,10.40
2018-02-27T05:35:03.093Z,10.95
2018-02-27T05:37:30.564Z,10.07
2018-02-27T05:39:58.003Z,10.45
2018-02-27T05:42:25.444Z,9.73
2018-02-27T05:44:52.917Z,10.25
2018-02-27T05:47:20.378Z,10.32
2018-02-27T05:49:47.840Z,10.52
2018-02-27T05:52:15.317Z,11.75
2018-02-27T05:54:42.739Z,9.88
2018-02-27T05:57:10.244Z,10.70
2018-02-27T05:59:37.696Z,11.57
2018-02-27T06:02:05.346Z,10.68
2018-02-27T06:04:32.978Z,11.18
2018-02-27T06:07:00.543Z,10.15
2018-02-27T06:09:28.225Z,10.40
2018-02-27T06:11:55.691Z,10.02
2018-02-27T06:14:23.172Z,10.15
2018-02-27T06:16:50.653Z,9.75
2018-02-27T06:19:18.069Z,10.90
2018-02-27T06:21:46.151Z,11.25
2018-02-27T06:24:13.607Z,11.32
2018-02-27T06:26:41.088Z,11.30
2018-02-27T06:29:08.512Z,10.68
2018-02-27T06:31:35.978Z,10.13
2018-02-27T06:34:03.928Z,10.05
2018-02-27T06:36:31.374Z,11.35
2018-02-27T06:38:58.846Z,11.48
2018-02-27T06:41:26.283Z,11.40
2018-02-27T06:43:53.761Z,11.25
2018-02-27T06:46:21.381Z,10.52
2018-02-27T06:48:48.843Z,10.82
2018-02-27T06:51:16.317Z,11.38
2018-02-27T06:53:43.794Z,10.55
2018-02-27T06:56:11.250Z,11.15
2018-02-27T06:58:38.683Z,9.93
2018-02-27T07:01:06.157Z,11.10
2018-02-27T07:03:33.626Z,11.68
2018-02-27T07:06:01.130Z,10.55
2018-02-27T07:08:28.601Z,11.55
2018-02-27T07:10:56.066Z,11.20
2018-02-27T07:13:23.506Z,11.45
2018-02-27T07:15:50.970Z,12.10
2018-02-27T07:18:18.436Z,12.20
2018-02-27T07:20:45.882Z,12.13
2018-02-27T07:23:13.381Z,12.55
2018-02-27T07:25:40.903Z,12.20
2018-02-27T07:28:08.373Z,11.77
2018-02-27T07:30:35.806Z,11.85
2018-02-27T07:33:03.310Z,11.20
2018-02-27T07:35:30.764Z,12.10
2018-02-27T07:37:58.217Z,12.07
2018-02-27T07:40:25.714Z,12.00
2018-02-27T07:42:53.159Z,12.30
2018-02-27T07:45:20.592Z,12.52
2018-02-27T07:47:48.078Z,12.70
2018-02-27T07:50:15.679Z,12.10
2018-02-27T07:52:43.124Z,12.70
2018-02-27T07:55:10.573Z,12.60
2018-02-27T07:57:38.013Z,11.48
2018-02-27T08:00:05.440Z,12.95
2018-02-27T08:02:32.900Z,11.88
2018-02-27T08:05:00.363Z,12.25
2018-02-27T08:07:27.835Z,11.60
2018-02-27T08:09:55.301Z,13.05
2018-02-27T08:12:23.367Z,12.02
2018-02-27T08:14:50.802Z,13.30
2018-02-27T08:17:18.265Z,13.80
2018-02-27T08:19:45.781Z,14.35
2018-02-27T08:22:13.229Z,12.60
2018-02-27T08:24:40.731Z,13.48
2018-02-27T08:27:08.187Z,13.02
2018-02-27T08:29:36.252Z,13.38
2018-02-27T08:32:03.734Z,13.23
2018-02-27T08:34:31.255Z,11.98
2018-02-27T08:36:58.700Z,13.68
2018-02-27T08:39:26.150Z,12.48
2018-02-27T08:41:53.610Z,14.02
2018-02-27T08:44:21.047Z,13.30
2018-02-27T08:46:48.504Z,13.35
2018-02-27T08:49:15.954Z,12.48
2018-02-27T08:51:43.454Z,12.65
2018-02-27T08:54:11.015Z,14.57
2018-02-27T08:56:38.600Z,14.45
2018-02-27T08:59:06.144Z,13.52
2018-02-27T09:01:33.574Z,15.52
2018-02-27T09:04:01.037Z,15.20
2018-02-27T09:06:28.475Z,14.55
2018-02-27T09:08:55.937Z,14.60
2018-02-27T09:11:23.389Z,15.20
2018-02-27T09:13:50.901Z,15.65
2018-02-27T09:16:18.374Z,14.95
2018-02-27T09:18:45.807Z,13.88
2018-02-27T09:21:13.315Z,14.87
2018-02-27T09:23:40.748Z,15.52
2018-02-27T09:26:08.358Z,13.38
2018-02-27T09:28:35.791Z,15.75
2018-02-27T09:31:03.220Z,14.80
2018-02-27T09:33:30.716Z,15.90
2018-02-27T09:35:58.140Z,13.77
2018-02-27T09:38:25.649Z,15.70
2018-02-27T09:40:53.042Z,16.25
2018-02-27T09:43:20.505Z,14.90
2018-02-27T09:45:48.083Z,16.27
2018-02-27T09:48:15.544Z,16.10
2018-02-27T09:50:42.997Z,15.70
2018-02-27T09:53:10.427Z,15.70
2018-02-27T09:55:37.969Z,14.30
2018-02-27T09:58:05.412Z,16.67
2018-02-27T10:00:32.897Z,15.95
2018-02-27T10:03:00.347Z,16.65
2018-02-27T10:05:27.832Z,16.48
2018-02-27T10:07:55.269Z,16.00
2018-02-27T10:10:22.696Z,15.55
2018-02-27T10:12:50.158Z,16.60
2018-02-27T10:15:17.584Z,17.90
2018-02-27T10:17:45.060Z,16.25
2018-02-27T10:20:12.490Z,16.33
2018-02-27T10:22:40.013Z,15.95
2018-02-27T10:25:07.440Z,16.33
2018-02-27T10:27:34.955Z,16.30
2018-02-27T10:30:02.376Z,17.37
2018-02-27T10:32:29.800Z,16.25
2018-02-27T10:34:57.289Z,15.35
2018-02-27T10:37:24.734Z,16.37
2018-02-27T10:39:52.232Z,14.95
2018-02-27T10:42:19.696Z,16.55
2018-02-27T10:44:47.166Z,16.77
2018-02-27T10:47:14.602Z,16.08
2018-02-27T10:49:42.064Z,16.23
2018-02-27T10:52:09.527Z,16.23
2018-02-27T10:54:36.992Z,14.80
2018-02-27T10:57:04.419Z,16.48
2018-02-27T10:59:31.888Z,15.95
2018-02-27T11:02:14.232Z,15.85
2018-02-27T11:04:41.666Z,14.40
2018-02-27T11:07:09.135Z,15.27
2018-02-27T11:09:36.574Z,15.55
2018-02-27T11:12:04.124Z,16.50
2018-02-27T11:14:31.606Z,15.90
2018-02-27T11:16:59.093Z,15.77
2018-02-27T11:19:26.556Z,14.93
2018-02-27T11:21:53.993Z,15.50
2018-02-27T11:24:21.503Z,15.77
2018-02-27T11:26:48.955Z,16.20
2018-02-27T11:29:16.410Z,15.45
2018-02-27T11:31:43.891Z,16.37
2018-02-27T11:34:11.395Z,12.35
2018-02-27T11:36:38.904Z,16.27
2018-02-27T11:39:06.334Z,15.68
2018-02-27T11:41:33.978Z,17.95
2018-02-27T11:44:01.501Z,15.55
2018-02-27T11:46:28.973Z,14.63
2018-02-27T11:48:56.474Z,15.20
2018-02-27T11:51:23.912Z,16.42
2018-02-27T11:53:51.365Z,15.25
2018-02-27T11:56:18.840Z,15.30
2018-02-27T11:58:46.259Z,13.80
2018-02-27T12:01:13.881Z,14.52
2018-02-27T12:03:41.355Z,14.70
2018-02-27T12:06:08.898Z,14.18
2018-02-27T12:08:36.659Z,13.68
2018-02-27T12:11:04.131Z,14.82
2018-02-27T12:13:31.665Z,16.02
2018-02-27T12:15:59.089Z,16.00
2018-02-27T12:18:26.613Z,15.50
2018-02-27T12:20:54.081Z,15.48
2018-02-27T12:23:21.550Z,11.32
2018-02-27T12:25:49.012Z,17.70
2018-02-27T12:28:16.471Z,15.43
2018-02-27T12:30:43.928Z,15.10
2018-02-27T12:33:11.405Z,14.60
2018-02-27T12:35:38.836Z,15.50
2018-02-27T12:38:06.321Z,15.25
2018-02-27T12:40:33.810Z,16.00
2018-02-27T12:43:01.247Z,15.48
2018-02-27T12:45:28.713Z,15.60
2018-02-27T12:47:56.166Z,15.55
2018-02-27T12:50:23.664Z,15.23
2018-02-27T12:52:51.121Z,15.45
2018-02-27T12:55:18.584Z,19.10
2018-02-27T12:57:46.019Z,16.02
2018-02-27T13:00:13.487Z,16.23
2018-02-27T13:02:40.924Z,17.42
2018-02-27T13:05:08.412Z,16.37
2018-02-27T13:07:35.853Z,15.95
2018-02-27T13:10:03.339Z,16.23
2018-02-27T13:12:30.777Z,16.12
2018-02-27T13:14:58.253Z,16.65
2018-02-27T13:17:25.720Z,16.33
2018-02-27T13:19:53.188Z,16.58
2018-02-27T13:22:20.668Z,15.45
2018-02-27T13:24:48.098Z,15.85
2018-02-27T13:27:15.560Z,16.55
2018-02-27T13:29:43.048Z,15.48
2018-02-27T13:32:10.505Z,15.55
2018-02-27T13:34:37.941Z,16.00
2018-02-27T13:39:39.431Z,15.35
2018-02-27T13:42:06.895Z,16.50
2018-02-27T13:44:34.374Z,16.75
2018-02-27T13:47:01.814Z,15.43
2018-02-27T13:49:29.305Z,15.95
2018-02-27T13:51:56.774Z,16.23
2018-02-27T13:54:24.247Z,19.00
2018-02-27T13:56:51.700Z,16.73
2018-02-27T13:59:19.286Z,15.60
2018-02-27T14:01:46.718Z,16.70
2018-02-27T14:04:14.160Z,15.85
2018-02-27T14:06:41.636Z,17.83
2018-02-27T14:09:09.066Z,16.15
2018-02-27T14:11:36.529Z,15.90
2018-02-27T14:14:03.973Z,17.02
2018-02-27T14:16:31.426Z,17.42
2018-02-27T14:18:58.893Z,16.33
2018-02-27T14:21:26.381Z,14.02
2018-02-27T14:23:53.830Z,14.80
2018-02-27T14:26:21.290Z,14.60
2018-02-27T14:28:48.738Z,15.00
2018-02-27T14:31:16.798Z,14.05
2018-02-27T14:33:44.297Z,15.43
2018-02-27T14:36:11.846Z,16.83
2018-02-27T14:38:39.419Z,17.12
2018-02-27T14:41:06.852Z,17.05
2018-02-27T14:43:34.382Z,18.98
2018-02-27T14:46:01.836Z,12.77
2018-02-27T14:48:29.275Z,16.65
2018-02-27T14:50:56.737Z,18.23
2018-02-27T14:53:24.165Z,17.50
2018-02-27T14:55:51.687Z,15.18
2018-02-27T14:58:19.244Z,15.55
2018-02-27T15:00:46.766Z,15.77
2018-02-27T15:03:14.196Z,14.65
2018-02-27T15:05:41.666Z,17.05
2018-02-27T15:08:09.165Z,16.85
2018-02-27T15:10:36.613Z,15.55
2018-02-27T15:13:04.080Z,17.42
2018-02-27T15:15:31.573Z,17.45
2018-02-27T15:17:59.078Z,19.58
2018-02-27T15:20:26.642Z,17.98
2018-02-27T15:22:54.152Z,19.23
2018-02-27T15:25:21.649Z,15.90
2018-02-27T15:27:49.101Z,17.67
2018-02-27T15:30:16.571Z,16.95
2018-02-27T15:32:43.994Z,19.30
2018-02-27T15:35:11.466Z,18.20
2018-02-27T15:37:38.945Z,17.08
2018-02-27T15:40:06.438Z,19.00
2018-02-27T15:42:33.904Z,20.58
2018-02-27T15:45:01.340Z,18.75
2018-02-27T15:47:28.867Z,18.90
2018-02-27T15:49:56.426Z,18.73
2018-02-27T15:52:23.869Z,19.75
2018-02-27T15:54:51.367Z,20.62
2018-02-27T15:57:18.782Z,19.60
2018-02-27T15:59:46.261Z,18.35
2018-02-27T16:02:13.764Z,17.65
2018-02-27T16:04:41.234Z,18.27
2018-02-27T16:07:08.665Z,19.37
2018-02-27T16:09:36.124Z,18.65
2018-02-27T16:12:03.572Z,19.12
2018-02-27T16:14:31.047Z,18.27
2018-02-27T16:16:58.488Z,17.85
2018-02-27T16:19:25.978Z,19.15
2018-02-27T16:21:53.600Z,18.30
2018-02-27T16:24:21.161Z,19.77
2018-02-27T16:26:48.640Z,17.42
2018-02-27T16:29:16.128Z,18.73
2018-02-27T16:31:43.599Z,19.25
2018-02-27T16:34:11.124Z,17.55
2018-02-27T16:36:39.182Z,17.27
2018-02-27T16:39:06.646Z,18.02
2018-02-27T16:41:34.209Z,17.08
2018-02-27T16:44:01.704Z,18.90
2018-02-27T16:46:29.374Z,18.00
2018-02-27T16:48:56.954Z,16.67
2018-02-27T16:51:24.704Z,14.23
2018-02-27T16:53:52.160Z,16.90
2018-02-27T16:56:19.907Z,17.17
2018-02-27T16:58:47.426Z,18.95
2018-02-27T17:01:14.906Z,16.90
2018-02-27T17:03:42.394Z,15.95
2018-02-27T17:06:09.864Z,16.75
2018-02-27T17:08:37.344Z,16.92
2018-02-27T17:11:04.826Z,18.92
2018-02-27T17:13:32.289Z,17.98
2018-02-27T17:15:59.793Z,17.60
2018-02-27T17:18:27.248Z,17.80
2018-02-27T17:20:54.747Z,18.05
2018-02-27T17:23:22.272Z,19.30
2018-02-27T17:25:49.763Z,18.77
2018-02-27T17:28:17.360Z,18.70
2018-02-27T17:30:44.841Z,18.33
2018-02-27T17:33:12.306Z,17.70
2018-02-27T17:35:39.868Z,16.95
2018-02-27T17:38:07.300Z,18.87
2018-02-27T17:40:34.758Z,18.30
2018-02-27T17:43:02.223Z,17.27
2018-02-27T17:45:29.684Z,19.02
2018-02-27T17:47:57.159Z,18.05
2018-02-27T17:50:24.607Z,18.70
2018-02-27T17:52:52.073Z,20.50
2018-02-27T17:55:19.556Z,20.80
2018-02-27T17:57:47.052Z,21.90
2018-02-27T18:00:14.535Z,19.25
2018-02-27T18:02:42.017Z,17.50
2018-02-27T18:05:09.490Z,19.45
2018-02-27T18:07:37.015Z,19.42
2018-02-27T18:10:04.548Z,18.37
2018-02-27T18:12:32.494Z,17.98
2018-02-27T18:14:59.990Z,18.20
2018-02-27T18:17:27.454Z,20.05
2018-02-27T18:19:54.908Z,22.60
2018-02-27T18:22:22.411Z,21.62
2018-02-27T18:24:49.907Z,21.35
2018-02-27T18:27:17.445Z,26.40
2018-02-27T18:29:44.922Z,24.08
2018-02-27T18:32:12.446Z,26.50
2018-02-27T18:34:39.941Z,28.15
2018-02-27T18:37:07.418Z,23.33
2018-02-27T18:39:34.938Z,26.52
2018-02-27T18:42:02.453Z,21.45
2018-02-27T18:44:29.919Z,29.55
2018-02-27T18:46:57.381Z,26.70
2018-02-27T18:49:24.884Z,21.23
2018-02-27T18:51:52.366Z,21.62
2018-02-27T18:54:19.910Z,19.48
2018-02-27T18:56:47.984Z,19.58
2018-02-27T18:59:15.454Z,19.27
2018-02-27T19:01:43.881Z,20.30
2018-02-27T19:04:11.388Z,19.10
2018-02-27T19:06:38.888Z,20.37
2018-02-27T19:09:06.339Z,19.80
2018-02-27T19:11:33.851Z,21.40
2018-02-27T19:14:01.338Z,22.02
2018-02-27T19:16:28.799Z,20.30
2018-02-27T19:18:56.259Z,22.05
2018-02-27T19:21:23.761Z,23.20
2018-02-27T19:23:51.221Z,22.73
2018-02-27T19:26:18.710Z,21.55
2018-02-27T19:28:46.182Z,22.55
2018-02-27T19:31:13.653Z,22.92
2018-02-27T19:33:41.217Z,22.40
2018-02-27T19:36:08.878Z,20.62
2018-02-27T19:38:36.412Z,22.98
2018-02-27T19:41:03.946Z,23.67
2018-02-27T19:43:31.506Z,21.70
2018-02-27T19:45:58.970Z,23.60
2018-02-27T19:48:26.579Z,25.60
2018-02-27T19:50:54.060Z,22.92
2018-02-27T19:53:21.547Z,23.55
2018-02-27T19:55:48.995Z,25.10
2018-02-27T19:58:16.495Z,24.25
2018-02-27T20:00:43.965Z,24.73
2018-02-27T20:03:11.419Z,26.77
2018-02-27T20:05:38.927Z,25.15
2018-02-27T20:08:06.420Z,25.65
2018-02-27T20:10:34.510Z,25.65
2018-02-27T20:13:01.955Z,23.45
2018-02-27T20:15:29.584Z,23.12
2018-02-27T20:18:03.263Z,20.73
2018-02-27T20:20:31.223Z,24.15
2018-02-27T20:23:04.285Z,22.13
2018-02-27T20:25:31.748Z,20.42
2018-02-27T20:27:59.334Z,22.45
2018-02-27T20:30:26.806Z,20.10
2018-02-27T20:32:54.289Z,19.37
2018-02-27T20:35:21.759Z,19.73
2018-02-27T20:37:49.236Z,20.20
2018-02-27T20:40:16.738Z,19.48
2018-02-27T20:42:44.256Z,21.10
2018-02-27T20:45:11.714Z,20.92
2018-02-27T20:47:39.201Z,19.90
2018-02-27T20:50:06.619Z,20.30
2018-02-27T20:52:34.102Z,23.23
2018-02-27T20:55:01.555Z,22.17
2018-02-27T20:57:29.768Z,21.55
2018-02-27T20:59:57.297Z,22.15
2018-02-27T21:02:24.728Z,22.25
2018-02-27T21:04:52.263Z,22.48
2018-02-27T21:07:19.723Z,22.42
2018-02-27T21:09:47.244Z,22.80
2018-02-27T21:12:14.870Z,23.85
2018-02-27T21:14:42.513Z,23.17
2018-02-27T21:17:09.987Z,21.52
2018-02-27T21:19:37.566Z,18.60
2018-02-27T21:22:05.332Z,20.00
2018-02-27T21:24:33.015Z,19.70
2018-02-27T21:27:00.678Z,18.42
2018-02-27T21:29:28.225Z,17.92
2018-02-27T21:31:55.851Z,18.83
2018-02-27T21:34:23.324Z,19.15
2018-02-27T21:36:50.834Z,19.90
2018-02-27T21:39:18.360Z,20.00
2018-02-27T21:41:45.983Z,22.30
2018-02-27T21:44:13.413Z,23.30
2018-02-27T21:46:40.899Z,22.30
2018-02-27T21:49:08.346Z,21.90
2018-02-27T21:51:35.832Z,23.92
2018-02-27T21:54:03.554Z,24.27
2018-02-27T21:56:31.066Z,24.25
2018-02-27T21:58:58.510Z,23.65
2018-02-27T22:01:26.847Z,24.17
2018-02-27T22:03:54.330Z,24.25
2018-02-27T22:06:21.793Z,24.25
2018-02-27T22:08:49.271Z,24.40
2018-02-27T22:11:16.709Z,24.40
2018-02-27T22:13:44.178Z,25.98
2018-02-27T22:16:11.641Z,24.25
2018-02-27T22:18:39.128Z,24.45
2018-02-27T22:21:06.616Z,25.20
2018-02-27T22:23:34.113Z,29.17
2018-02-27T22:26:01.764Z,28.42
2018-02-27T22:28:29.259Z,26.33
2018-02-27T22:30:56.881Z,25.77
2018-02-27T22:33:24.351Z,24.70
2018-02-27T22:35:52.105Z,25.05
2018-02-27T22:38:19.833Z,23.33
2018-02-27T22:40:47.336Z,27.27
2018-02-27T22:43:14.800Z,23.33
2018-02-27T22:45:42.265Z,23.98
2018-02-27T22:48:09.881Z,23.67
2018-02-27T22:50:37.429Z,22.95
2018-02-27T22:53:05.334Z,23.08
2018-02-27T22:55:32.841Z,22.42
2018-02-27T22:58:00.315Z,24.00
2018-02-27T23:00:43.619Z,23.55
2018-02-27T23:03:11.089Z,24.12
2018-02-27T23:05:38.720Z,26.83
2018-02-27T23:08:06.319Z,24.95
2018-02-27T23:10:33.912Z,23.58
2018-02-27T23:13:01.376Z,24.92
2018-02-27T23:15:28.847Z,22.25
2018-02-27T23:17:56.287Z,21.23
2018-02-27T23:20:23.784Z,19.48
2018-02-27T23:22:51.222Z,20.50
2018-02-27T23:25:25.071Z,20.37
2018-02-27T23:27:53.071Z,22.05
2018-02-27T23:30:21.142Z,21.20
2018-02-27T23:32:55.843Z,24.02
2018-02-27T23:35:24.647Z,24.65
2018-02-27T23:37:52.572Z,23.50
2018-02-27T23:40:20.022Z,23.70
2018-02-27T23:42:47.503Z,22.85
2018-02-27T23:45:14.956Z,24.83
2018-02-27T23:47:42.393Z,22.67
2018-02-27T23:50:09.854Z,22.25
2018-02-27T23:52:37.319Z,23.33
2018-02-27T23:55:04.843Z,23.45
2018-02-27T23:57:32.273Z,23.25
2018-02-27T23:59:59.751Z,23.87
